• Join FlightAware (Why Join?)
  • Login
  • US Flag 
11:16PM EDT


 

Airport Tracker/Info


-or-


 

Live Flight TrackerFlight Track Log ✈ UAL5832 ✈ 01-May-2013 ✈ KSDF - KORD

Flight Track Log - Related Links

Times and Time Zones

All times are in EDT time to prevent confusion due to time zone crossing. See the UAL5832 flight status page for this flight to view local times or setup timezone preferences in your user account.

Time Position Orientation Groundspeed Altitude Reporting Facility
EDT Latitude Longitude Course Direction KTS MPH feet Rate Location/Type
07:36PM 38.0761 -85.7761 360° North 296 341 3,900  Level Indianapolis Center
07:38PM 38.1228 -85.8392 313° West 284 327 7,000 2,700 Climbing Indianapolis Center
07:39PM 38.2003 -85.8594 348° North 282 325 9,500 2,220 Climbing Indianapolis Center
07:40PM 38.2797 -85.8817 348° North 292 336 11,600 1,920 Climbing Indianapolis Center
07:41PM 38.3722 -85.9833 North  Level FlightAware Approximate
07:41PM 38.3653 -85.9039 348° North 309 356 13,500  Level Indianapolis Center
07:42PM 38.4690 -85.9833 360° North  Level FlightAware Approximate
07:42PM 38.4539 -85.9278 348° North 320 368 15,500  Level Indianapolis Center
07:43PM 38.5453 -85.9514 349° North 332 382 17,300 1,740 Climbing Indianapolis Center
07:44PM 38.6381 -85.9767 348° North 340 391 19,100 1,740 Climbing Indianapolis Center
07:45PM 38.7494 -86.0072 348° North 342 394 21,000 1,560 Climbing Indianapolis Center
07:46PM 38.8506 -85.9981 North 368 423 22,400 1,200 Climbing Indianapolis Center
07:47PM 38.9536 -85.9797 North 375 432 23,500 960 Climbing Indianapolis Center
07:48PM 39.0653 -85.9589 North 396 456 24,500 960 Climbing Indianapolis Center
07:49PM 39.1781 -85.9361 North 407 468 25,500 1,020 Climbing Indianapolis Center
07:50PM 39.2933 -85.9133 North 415 478 26,600 960 Climbing Indianapolis Center
07:51PM 39.4092 -85.8917 North 418 481 27,600 660 Climbing Indianapolis Center
07:52PM 39.5453 -85.8644 North 422 486 28,000 -120 Climbing Indianapolis Center
07:53PM 39.6672 -85.8411 North 439 505 27,400 -780 Descending Indianapolis Center
07:54PM 39.7908 -85.8175 North 448 516 26,500 -720 Descending Indianapolis Center
07:55PM 39.9222 -85.7919 North 473 544 26,000 -420 Descending Indianapolis Center
07:56PM 40.0522 -85.7664 North 474 545 25,700 -660 Descending Indianapolis Center
07:57PM 40.1578 -85.7436 North 464 534 24,800 -960 Descending Chicago Center
07:58PM 40.2872 -85.7189 North 467 537 24,000 -420 Descending Chicago Center
07:59PM 40.4353 -85.6894 North 459 528 24,000  Level Chicago Center
08:00PM 40.5592 -85.7044 355° North 451 519 24,000  Level Chicago Center
08:01PM 40.6506 -85.8181 317° Northwest 458 527 24,000 -540 Level Chicago Center
08:02PM 40.7297 -85.9658 305° West 454 522 23,000 -540 Descending Chicago Center
08:03PM 40.8006 -86.1003 305° West 447 514 23,000  Level Chicago Center
08:04PM 40.8728 -86.2381 305° West 455 524 23,000  Level Chicago Center
08:05PM 40.9444 -86.3750 305° West 454 522 23,000  Level Chicago Center
08:06PM 41.0161 -86.5131 305° West 455 524 23,000 -240 Level Chicago Center
08:07PM 41.0942 -86.6422 309° West 450 518 22,500 -1,380 Descending Chicago Center
08:08PM 41.1836 -86.7922 308° West 435 501 20,200 -2,100 Descending Chicago Center
08:09PM 41.2514 -86.9175 306° West 424 488 18,200 -1,920 Descending Chicago Center
08:10PM 41.3183 -87.0356 307° West 407 468 16,300 -2,160 Descending Chicago Center
08:11PM 41.3833 -87.1500 307° West 399 459 14,300 -2,520 Descending Chicago TRACON
08:12PM 41.4500 -87.2500 312° West 380 437 11,900 -2,100 Descending Chicago TRACON
08:13PM 41.5167 -87.3667 307° West 363 418 10,100 -1,560 Descending Chicago TRACON
08:13PM 41.5292 -87.3881 308° West 366 421 9,900 -120 Descending Chicago Center
08:14PM 41.6067 -87.4722 321° Northwest 363 418 10,000  Climbing Chicago Center
08:15PM 41.6825 -87.5569 320° Northwest 361 415 9,900 -780 Descending Chicago Center
08:17PM 41.7422 -87.6258 319° Northwest 297 342 8,400 -1,680 Descending Chicago Center
08:17PM 41.7833 -87.6833 314° West 289 333 7,200 -840 Descending Chicago TRACON
08:18PM 41.8667 -87.6833 360° North 286 329 7,100 -120 Descending Chicago TRACON
08:19PM 41.9500 -87.7000 352° North 252 290 7,000 -420 Descending Chicago TRACON
08:20PM 42.0167 -87.7000 360° North 224 258 6,300 -1,320 Descending Chicago TRACON
08:21PM 42.0667 -87.7000 360° North 226 260 4,500 -1,620 Descending Chicago TRACON
08:22PM 42.1000 -87.7667 304° West 205 236 3,100 -900 Descending Chicago TRACON
08:25PM 42.0128 -87.8797 224° Southwest 173 199 1,300 -780 Descending Chicago Center
08:25PM 42.0000 -87.8833 192° South 137 158 900 -1,200 Descending Chicago TRACON
08:27PM 41.9817 -87.9067 251° West  Level Estimated
08:34PM 41.9817 -87.9067 251° West  Level Estimated